Time;durP1;ratioP1;P1;durP2;ratioP2;P2;SDS_P1;SDS_P2;PMS_P1;PMS_P2;Temp;Humidity;BMP_temperature;BMP_pressure;BME280_temperature;BME280_humidity;BME280_pressure;Samples;Min_cycle;Max_cycle;Signal;HPM_P1;HPM_P2
2023/06/09 00:01:24;;;;;;;6.85;3.78;;;;;;;26.13;39.23;101119.16;5015578;28;20374;-59
2023/06/09 00:03:50;;;;;;;6.40;3.70;;;;;;;26.10;39.78;101122.34;5015235;28;20051;-59
2023/06/09 00:06:22;;;;;;;5.95;4.40;;;;;;;26.02;40.15;101113.31;5014240;28;20034;-59
2023/06/09 00:08:49;;;;;;;5.03;3.60;;;;;;;25.96;39.46;101116.94;5015405;28;20188;-58
2023/06/09 00:11:15;;;;;;;4.05;3.47;;;;;;;25.88;39.45;101108.97;5015529;28;20061;-59
2023/06/09 00:13:41;;;;;;;6.20;4.80;;;;;;;25.81;39.61;101119.19;5014062;28;20474;-59
2023/06/09 00:16:06;;;;;;;6.10;4.00;;;;;;;25.73;39.59;101111.22;5015221;28;20049;-59
2023/06/09 00:18:32;;;;;;;5.25;3.60;;;;;;;25.64;39.81;101115.28;5013864;28;20022;-58
2023/06/09 00:20:59;;;;;;;5.95;4.03;;;;;;;25.54;40.34;101106.69;5015078;28;20450;-59
2023/06/09 00:23:28;;;;;;;5.82;4.05;;;;;;;25.49;40.42;101109.22;5014314;28;20466;-59
2023/06/09 00:25:53;;;;;;;6.15;3.42;;;;;;;25.44;40.39;101111.78;5015506;28;20032;-59
2023/06/09 00:28:18;;;;;;;8.70;4.30;;;;;;;25.38;40.15;101113.50;5014807;28;20101;-59
2023/06/09 00:30:44;;;;;;;6.28;3.83;;;;;;;25.23;40.25;101092.91;5015190;28;20041;-59
2023/06/09 00:33:10;;;;;;;6.30;3.67;;;;;;;25.34;39.96;101114.16;5015124;28;20448;-58
2023/06/09 00:35:35;;;;;;;5.65;4.30;;;;;;;25.24;40.07;101105.53;5014871;28;20129;-59
2023/06/09 00:38:01;;;;;;;11.48;4.40;;;;;;;25.22;40.45;101111.25;5014436;28;20026;-58
2023/06/09 00:40:26;;;;;;;8.63;4.47;;;;;;;25.15;40.28;101112.34;5014936;28;20025;-59
2023/06/09 00:42:52;;;;;;;11.20;4.32;;;;;;;25.08;40.30;101117.00;5014512;28;20133;-59
2023/06/09 00:45:17;;;;;;;5.43;3.95;;;;;;;25.03;40.84;101108.59;5014741;28;20409;-59
2023/06/09 00:47:43;;;;;;;8.40;3.97;;;;;;;24.99;40.62;101110.06;5014502;28;20054;-58
2023/06/09 00:50:10;;;;;;;6.22;4.20;;;;;;;24.99;40.79;101110.06;5013948;28;20433;-58
2023/06/09 00:52:35;;;;;;;7.15;4.40;;;;;;;24.98;40.96;101098.28;5014732;28;20061;-58
2023/06/09 00:55:02;;;;;;;6.95;4.90;;;;;;;25.00;40.91;101106.28;5014816;28;20509;-59
2023/06/09 00:57:29;;;;;;;7.70;4.30;;;;;;;25.03;40.66;101105.84;5013254;28;20026;-59
2023/06/09 00:59:56;;;;;;;6.47;4.80;;;;;;;25.05;41.48;101100.97;5014030;28;20025;-58
2023/06/09 01:02:23;;;;;;;9.88;5.03;;;;;;;25.03;41.53;101105.84;5014420;28;20034;-58
2023/06/09 01:04:49;;;;;;;6.10;4.97;;;;;;;24.90;41.24;101087.56;5014233;28;20308;-59
2023/06/09 01:07:38;;;;;;;6.13;4.55;;;;;;;25.04;41.40;101110.28;5012945;28;20032;-59
2023/06/09 01:10:17;;;;;;;7.15;4.60;;;;;;;24.82;41.22;101074.06;5013667;28;20096;-59
2023/06/09 01:12:48;;;;;;;7.30;4.95;;;;;;;25.00;41.60;101103.53;5014598;28;20025;-58
2023/06/09 01:15:23;;;;;;;8.27;4.47;;;;;;;24.85;41.12;101088.19;5014685;28;20021;-59
2023/06/09 01:17:52;;;;;;;7.05;5.07;;;;;;;24.92;41.21;101098.31;5014043;28;20046;-59
2023/06/09 01:20:26;;;;;;;7.55;5.22;;;;;;;24.88;41.70;101100.63;5014291;28;20116;-59
2023/06/09 01:23:06;;;;;;;5.90;4.82;;;;;;;24.84;41.63;101105.72;5012867;28;20512;-58
2023/06/09 01:25:37;;;;;;;10.02;5.00;;;;;;;24.82;41.62;101106.97;5013012;28;20030;-58
2023/06/09 01:28:06;;;;;;;9.02;4.60;;;;;;;24.78;41.15;101106.53;5012931;28;20022;-58
2023/06/09 01:30:33;;;;;;;6.18;4.90;;;;;;;24.73;41.33;101098.13;5013022;28;20056;-58
2023/06/09 01:33:00;;;;;;;8.38;4.93;;;;;;;24.72;41.80;101101.06;5012683;28;20026;-59
2023/06/09 01:35:26;;;;;;;8.65;5.70;;;;;;;24.68;42.17;101100.66;5013095;28;20025;-58
2023/06/09 01:37:55;;;;;;;6.82;4.40;;;;;;;24.63;42.06;101100.47;5014061;28;20026;-59
2023/06/09 01:40:21;;;;;;;12.10;5.53;;;;;;;24.60;41.55;101092.66;5014118;28;20033;-59
2023/06/09 01:42:46;;;;;;;8.60;5.13;;;;;;;24.56;41.59;101096.91;5013070;28;20153;-58
2023/06/09 01:45:11;;;;;;;6.22;5.13;;;;;;;24.52;42.16;101094.78;5014031;28;20477;-58
2023/06/09 01:47:37;;;;;;;8.32;4.57;;;;;;;24.32;42.01;101062.81;5013950;28;20049;-59
2023/06/09 01:50:05;;;;;;;6.60;4.57;;;;;;;24.44;42.33;101087.66;5012006;28;20100;-58
2023/06/09 01:52:32;;;;;;;8.50;4.78;;;;;;;24.41;42.11;101076.25;5012279;28;20155;-59
2023/06/09 01:55:01;;;;;;;8.25;4.75;;;;;;;24.39;41.88;101090.19;5013560;28;20485;-59
2023/06/09 01:57:33;;;;;;;7.10;5.03;;;;;;;24.37;42.49;101085.97;5013763;28;20042;-59
2023/06/09 02:00:05;;;;;;;8.53;4.80;;;;;;;24.34;42.55;101090.00;5012216;28;20160;-58
2023/06/09 02:02:32;;;;;;;6.35;4.85;;;;;;;24.29;41.66;101095.22;5012677;28;20054;-58
2023/06/09 02:04:58;;;;;;;6.47;4.85;;;;;;;24.25;41.85;101083.03;5012504;28;20113;-58
2023/06/09 02:07:24;;;;;;;6.82;4.88;;;;;;;24.18;42.28;101083.03;5012594;28;20478;-59
2023/06/09 02:09:50;;;;;;;11.68;4.97;;;;;;;23.98;42.01;101053.97;5013867;28;20097;-59
2023/06/09 02:12:16;;;;;;;7.22;5.15;;;;;;;24.08;42.17;101089.97;5013577;28;20030;-58
2023/06/09 02:14:42;;;;;;;7.05;4.95;;;;;;;24.03;41.92;101089.75;5013625;28;20524;-58
2023/06/09 02:17:10;;;;;;;6.25;4.75;;;;;;;23.98;42.22;101081.34;5013560;28;20110;-58
2023/06/09 02:19:38;;;;;;;8.27;5.13;;;;;;;23.91;42.49;101077.75;5013767;28;20025;-58
2023/06/09 02:22:06;;;;;;;13.25;5.32;;;;;;;23.70;42.48;101057.72;5013473;28;20034;-58
2023/06/09 02:24:33;;;;;;;5.50;4.40;;;;;;;23.81;42.64;101069.13;5013573;28;20045;-59
2023/06/09 02:26:59;;;;;;;11.52;5.13;;;;;;;23.78;43.16;101076.66;4996306;28;20034;-58
2023/06/09 02:29:25;;;;;;;6.70;5.15;;;;;;;23.57;42.49;101041.31;5013536;28;20093;-59
2023/06/09 02:31:53;;;;;;;8.02;5.05;;;;;;;23.71;42.27;101073.09;5013897;28;20041;-59
2023/06/09 02:34:19;;;;;;;7.85;6.05;;;;;;;23.68;43.29;101073.53;5013846;28;20539;-58
2023/06/09 02:36:45;;;;;;;10.45;5.38;;;;;;;23.61;42.96;101067.22;5012424;28;20026;-58
2023/06/09 02:39:11;;;;;;;9.05;5.57;;;;;;;23.59;43.06;101077.50;5013877;28;20045;-59
2023/06/09 02:41:38;;;;;;;10.30;5.30;;;;;;;23.41;42.80;101058.13;5011976;28;20045;-58
2023/06/09 02:44:05;;;;;;;8.75;5.38;;;;;;;23.49;42.98;101079.81;5012484;28;20026;-58
2023/06/09 02:46:30;;;;;;;8.63;5.47;;;;;;;23.45;43.04;101081.25;5013594;28;20048;-59
2023/06/09 02:48:56;;;;;;;9.65;5.53;;;;;;;23.31;43.50;101063.09;5012898;28;20474;-58
2023/06/09 02:51:22;;;;;;;6.45;5.35;;;;;;;23.38;43.65;101080.41;5013434;28;20030;-59
2023/06/09 02:53:47;;;;;;;9.48;5.00;;;;;;;23.37;43.73;101086.88;5013177;28;20437;-58
2023/06/09 02:56:13;;;;;;;6.88;5.05;;;;;;;23.35;43.06;101089.00;5012043;28;20033;-58
2023/06/09 02:58:39;;;;;;;8.35;4.90;;;;;;;23.33;43.00;101093.81;5013122;28;20022;-58
2023/06/09 03:01:07;;;;;;;10.13;5.78;;;;;;;23.26;42.77;101092.94;5015164;28;20532;-58
2023/06/09 03:03:34;;;;;;;11.90;4.88;;;;;;;23.22;43.01;101097.16;5016704;28;20033;-58
2023/06/09 03:06:00;;;;;;;8.30;5.05;;;;;;;23.16;43.33;101104.28;5016834;28;20044;-59
2023/06/09 03:08:25;;;;;;;7.28;5.88;;;;;;;23.10;43.60;101096.06;5016480;28;20461;-58
2023/06/09 03:10:52;;;;;;;6.40;4.95;;;;;;;23.07;43.90;101099.19;5016383;28;20446;-58
2023/06/09 03:13:18;;;;;;;6.50;4.85;;;;;;;23.02;43.84;101102.53;5031467;28;20057;-58
2023/06/09 03:15:44;;;;;;;7.20;5.20;;;;;;;22.96;43.90;101107.97;5016372;28;20070;-59
2023/06/09 03:18:09;;;;;;;6.55;4.85;;;;;;;22.93;43.14;101108.38;5016322;28;20493;-59
2023/06/09 03:20:36;;;;;;;8.90;5.57;;;;;;;22.89;43.98;101102.47;5016382;28;20081;-58
2023/06/09 03:23:01;;;;;;;7.60;5.35;;;;;;;22.88;43.05;101113.59;5015282;28;20040;-58
2023/06/09 03:25:27;;;;;;;11.05;5.53;;;;;;;22.85;44.08;101105.81;5016534;28;20085;-58
2023/06/09 03:27:53;;;;;;;12.07;6.50;;;;;;;22.72;43.67;101089.34;5016809;28;20053;-58
2023/06/09 03:30:19;;;;;;;10.95;6.18;;;;;;;22.71;44.35;101087.66;5016297;28;20026;-58
2023/06/09 03:32:45;;;;;;;8.85;5.78;;;;;;;22.83;43.91;101114.22;5016441;28;20030;-58
2023/06/09 03:35:10;;;;;;;14.25;7.00;;;;;;;22.82;44.45;101104.31;5016257;28;20053;-58
2023/06/09 03:37:36;;;;;;;10.13;5.82;;;;;;;22.55;43.44;101062.34;5016107;28;20036;-59
2023/06/09 03:40:03;;;;;;;9.48;7.03;;;;;;;22.82;43.44;101104.31;5016659;28;20101;-58
2023/06/09 03:42:28;;;;;;;8.88;5.95;;;;;;;22.81;44.58;101102.63;5015794;28;20046;-58
2023/06/09 03:44:58;;;;;;;15.32;6.50;;;;;;;22.80;43.99;101100.97;5014822;28;20496;-58
2023/06/09 03:47:23;;;;;;;8.95;6.43;;;;;;;22.82;43.92;101100.75;5016028;28;20026;-58
2023/06/09 03:49:49;;;;;;;9.20;6.38;;;;;;;22.82;43.97;101103.47;5016940;28;20029;-58
2023/06/09 03:52:14;;;;;;;11.50;6.97;;;;;;;22.83;44.98;101103.28;5016382;28;20613;-58
2023/06/09 03:54:39;;;;;;;9.80;5.30;;;;;;;22.66;44.91;101077.34;5014553;28;20492;-58
2023/06/09 03:57:06;;;;;;;10.40;6.63;;;;;;;22.86;44.34;101112.97;5015811;28;20026;-58
2023/06/09 03:59:31;;;;;;;9.82;7.20;;;;;;;22.87;45.24;101106.44;5014554;28;20042;-58
2023/06/09 04:01:57;;;;;;;9.95;6.13;;;;;;;22.88;45.13;101106.25;5014331;28;20068;-58
2023/06/09 04:04:22;;;;;;;12.18;6.25;;;;;;;22.90;45.48;101106.03;4998277;28;20022;-58
2023/06/09 04:06:48;;;;;;;13.88;7.15;;;;;;;22.95;45.69;101109.00;5016077;28;20026;-58
2023/06/09 04:09:14;;;;;;;10.38;6.45;;;;;;;22.98;44.61;101105.88;5015728;28;20465;-58
2023/06/09 04:11:40;;;;;;;8.85;6.18;;;;;;;22.90;44.48;101085.03;5015185;28;20030;-58
2023/06/09 04:14:06;;;;;;;12.70;6.78;;;;;;;22.89;44.39;101085.25;5015289;28;20393;-59
2023/06/09 04:16:33;;;;;;;10.32;7.20;;;;;;;23.06;45.40;101113.91;5015778;28;20039;-58
2023/06/09 04:18:58;;;;;;;10.57;6.80;;;;;;;23.12;45.33;101118.53;5017019;28;20034;-58
2023/06/09 04:21:24;;;;;;;7.05;5.88;;;;;;;23.19;45.75;101113.97;5014220;28;20033;-58
2023/06/09 04:23:49;;;;;;;8.75;6.82;;;;;;;23.23;45.51;101109.75;5013970;28;20033;-58
2023/06/09 04:26:15;;;;;;;9.98;6.55;;;;;;;23.29;45.82;101125.34;5015153;28;20489;-58
2023/06/09 04:28:41;;;;;;;9.13;6.53;;;;;;;23.34;45.75;101122.84;5015265;28;20036;-58
2023/06/09 04:31:08;;;;;;;14.13;6.65;;;;;;;23.40;45.69;101127.53;5015561;28;20095;-58
2023/06/09 04:33:39;;;;;;;12.35;7.25;;;;;;;23.31;45.72;101106.84;5015224;28;20022;-58
2023/06/09 04:36:05;;;;;;;13.32;6.43;;;;;;;23.51;45.78;101129.66;5014702;28;20026;-58
2023/06/09 04:38:36;;;;;;;11.68;6.85;;;;;;;23.57;45.48;101131.56;5015175;28;20021;-58
2023/06/09 04:41:03;;;;;;;10.45;7.22;;;;;;;23.64;45.71;101137.06;5014968;28;20053;-58
2023/06/09 04:43:36;;;;;;;10.80;7.32;;;;;;;23.70;45.10;101128.03;5014899;28;20076;-58
2023/06/09 04:46:05;;;;;;;16.70;7.47;;;;;;;23.75;45.66;101131.84;5014658;28;20478;-58
2023/06/09 04:48:30;;;;;;;11.95;7.13;;;;;;;23.85;45.55;101136.03;5014565;28;20026;-58
2023/06/09 04:50:57;;;;;;;9.50;7.28;;;;;;;23.91;45.83;101135.22;5014643;28;20053;-58
2023/06/09 04:53:22;;;;;;;8.52;6.70;;;;;;;23.97;45.48;101139.84;5014512;28;20022;-58
2023/06/09 04:55:48;;;;;;;15.20;6.78;;;;;;;24.06;45.59;101133.13;5013265;28;20371;-58
2023/06/09 04:58:15;;;;;;;12.60;7.28;;;;;;;24.14;45.81;101141.16;5029893;28;20034;-58
2023/06/09 05:00:41;;;;;;;11.05;6.35;;;;;;;24.22;44.98;101149.19;5013256;28;20044;-58
2023/06/09 05:03:06;;;;;;;12.98;6.97;;;;;;;24.29;44.90;101139.91;5014735;28;20398;-59
2023/06/09 05:05:33;;;;;;;10.07;6.88;;;;;;;24.22;45.69;101117.16;5014542;28;20054;-58
2023/06/09 05:07:58;;;;;;;10.45;6.78;;;;;;;24.43;45.55;101140.72;5013430;28;20030;-59
2023/06/09 05:10:23;;;;;;;13.35;7.07;;;;;;;24.54;45.44;101145.56;5014692;28;20025;-58
2023/06/09 05:12:49;;;;;;;13.52;7.53;;;;;;;24.64;45.07;101148.72;5014595;28;20495;-58
2023/06/09 05:15:15;;;;;;;9.90;6.82;;;;;;;24.72;45.06;101134.81;4996807;28;20029;-58
2023/06/09 05:17:41;;;;;;;13.27;6.43;;;;;;;24.83;45.15;101142.41;5014361;28;20047;-58
2023/06/09 05:20:08;;;;;;;12.02;7.03;;;;;;;24.94;45.26;101148.25;5014537;28;20033;-58
2023/06/09 05:22:35;;;;;;;9.45;6.55;;;;;;;25.01;45.22;101147.22;5014337;28;20429;-58
2023/06/09 05:25:01;;;;;;;10.57;6.80;;;;;;;25.12;44.99;101145.69;5014068;28;20312;-59
2023/06/09 05:27:27;;;;;;;11.20;6.78;;;;;;;25.11;45.30;101133.03;5014308;28;20045;-59
2023/06/09 05:29:53;;;;;;;13.13;7.07;;;;;;;25.25;45.06;101134.66;5013873;28;20111;-58
2023/06/09 05:32:18;;;;;;;12.10;6.90;;;;;;;25.45;44.91;101154.63;5012656;28;20041;-59
2023/06/09 05:34:44;;;;;;;12.43;6.40;;;;;;;25.53;44.56;101159.88;5012814;28;20044;-58
2023/06/09 05:37:13;;;;;;;11.07;7.07;;;;;;;25.50;45.03;101127.41;5014889;28;20017;-58
2023/06/09 05:39:39;;;;;;;8.80;6.85;;;;;;;25.73;44.52;101148.78;5013907;28;20440;-59
2023/06/09 05:42:06;;;;;;;10.20;6.80;;;;;;;25.86;44.51;101149.56;5014056;28;20113;-58
2023/06/09 05:44:32;;;;;;;12.02;6.93;;;;;;;25.91;44.03;101130.50;5013974;28;20401;-58
2023/06/09 05:46:57;;;;;;;12.15;6.65;;;;;;;26.16;44.29;101154.47;5013852;28;20028;-58
2023/06/09 05:49:22;;;;;;;16.30;6.72;;;;;;;26.15;43.89;101130.78;5013638;28;20129;-59
2023/06/09 05:51:48;;;;;;;14.38;6.90;;;;;;;26.36;44.02;101155.09;5013974;28;20026;-57
2023/06/09 05:54:13;;;;;;;10.93;6.18;;;;;;;26.35;43.90;101136.97;5012385;28;20026;-58
2023/06/09 05:56:38;;;;;;;11.63;7.05;;;;;;;26.56;43.58;101156.63;5012903;28;20054;-58
2023/06/09 05:59:04;;;;;;;14.57;7.20;;;;;;;26.65;43.59;101159.09;5013752;28;20397;-59
2023/06/09 06:01:34;;;;;;;16.23;7.75;;;;;;;26.74;43.47;101153.06;5014135;28;20466;-58
2023/06/09 06:03:59;;;;;;;15.77;6.88;;;;;;;26.81;43.90;101151.13;5014043;28;20033;-58
2023/06/09 06:06:25;;;;;;;12.15;7.20;;;;;;;26.85;43.58;101135.84;5013493;28;20386;-59
2023/06/09 06:08:51;;;;;;;11.95;6.57;;;;;;;26.93;43.21;101143.81;5028807;28;20025;-58
2023/06/09 06:11:16;;;;;;;13.55;7.35;;;;;;;26.99;43.47;101151.16;5012645;28;20473;-57
2023/06/09 06:13:42;;;;;;;12.68;7.38;;;;;;;27.11;43.82;101143.78;5013622;28;20118;-58
2023/06/09 06:16:07;;;;;;;11.60;6.35;;;;;;;27.24;43.08;101144.72;5013402;28;20030;-58
2023/06/09 06:18:32;;;;;;;10.55;5.75;;;;;;;27.36;42.68;101146.44;5013366;28;20055;-58
2023/06/09 06:20:58;;;;;;;19.10;6.97;;;;;;;27.52;42.48;101154.13;5012035;28;20053;-58
2023/06/09 06:23:24;;;;;;;10.75;5.90;;;;;;;27.61;42.80;101155.44;5013791;28;20022;-59
2023/06/09 06:25:50;;;;;;;9.98;5.95;;;;;;;27.57;42.33;101126.72;5013653;28;20052;-58
2023/06/09 06:28:16;;;;;;;7.40;5.50;;;;;;;27.78;42.29;101150.13;5013145;28;20072;-58
2023/06/09 06:30:42;;;;;;;15.38;5.07;;;;;;;27.88;42.03;101147.66;5012010;28;20037;-58
2023/06/09 06:33:07;;;;;;;15.32;5.05;;;;;;;27.88;42.37;101127.53;5013497;28;20030;-58
2023/06/09 06:35:33;;;;;;;11.52;5.13;;;;;;;28.10;42.36;101147.97;5014410;28;20032;-58
2023/06/09 06:37:59;;;;;;;10.40;5.65;;;;;;;28.14;41.67;101152.78;5016995;28;20022;-58
2023/06/09 06:40:26;;;;;;;8.95;4.60;;;;;;;28.21;42.12;101147.16;5017282;28;20022;-58
2023/06/09 06:42:52;;;;;;;8.25;4.97;;;;;;;28.28;41.39;101143.22;4999370;28;20041;-58
2023/06/09 06:45:18;;;;;;;8.55;4.32;;;;;;;28.38;41.18;101150.91;5016882;28;20426;-58
2023/06/09 06:47:45;;;;;;;5.82;4.22;;;;;;;28.47;41.57;101143.97;5016968;28;20029;-58
2023/06/09 06:50:11;;;;;;;5.38;4.35;;;;;;;28.60;41.45;101137.38;5017113;28;20018;-58
2023/06/09 06:52:36;;;;;;;6.25;4.18;;;;;;;28.72;40.36;101136.34;5017077;28;20385;-58
2023/06/09 06:55:02;;;;;;;9.40;4.25;;;;;;;28.88;41.02;101141.09;5032252;28;20069;-58
2023/06/09 06:57:27;;;;;;;5.45;4.25;;;;;;;29.03;39.86;101143.38;5016643;28;20108;-58
2023/06/09 06:59:52;;;;;;;5.85;4.30;;;;;;;29.13;40.68;101138.06;5016949;28;20029;-58
2023/06/09 07:02:18;;;;;;;8.27;4.85;;;;;;;29.21;40.33;101134.91;5016842;28;20041;-58
2023/06/09 07:04:43;;;;;;;6.20;4.47;;;;;;;29.35;39.99;101141.88;4998988;28;20433;-58
2023/06/09 07:07:10;;;;;;;9.15;4.63;;;;;;;29.33;39.59;101115.59;5016784;28;20597;-58
2023/06/09 07:09:36;;;;;;;8.90;4.50;;;;;;;29.45;39.58;101114.44;5016276;28;20029;-61
2023/06/09 07:12:01;;;;;;;8.40;5.00;;;;;;;29.67;39.02;101130.34;5016450;28;20041;-58
2023/06/09 07:14:29;;;;;;;9.45;5.13;;;;;;;29.77;38.79;101128.59;5016589;28;20030;-58
2023/06/09 07:16:54;;;;;;;8.45;4.88;;;;;;;29.96;38.45;101126.47;5016543;28;20095;-58
2023/06/09 07:19:20;;;;;;;5.07;4.18;;;;;;;30.05;38.24;101136.03;5016840;28;20097;-59
2023/06/09 07:21:45;;;;;;;4.43;3.60;;;;;;;30.14;38.65;101129.03;5016326;28;20481;-58
2023/06/09 07:24:11;;;;;;;8.57;3.45;;;;;;;30.27;37.71;101139.72;5016561;28;20045;-58
2023/06/09 07:26:36;;;;;;;8.57;4.18;;;;;;;30.38;37.89;101130.53;5016779;28;20585;-59
2023/06/09 07:29:02;;;;;;;5.80;3.60;;;;;;;30.56;37.89;101135.81;5015875;28;20103;-58
2023/06/09 07:31:27;;;;;;;4.03;3.63;;;;;;;30.73;37.69;101132.19;5014927;28;20026;-59
2023/06/09 07:33:52;;;;;;;13.98;3.88;;;;;;;30.79;37.53;101120.09;5016212;28;20456;-58
2023/06/09 07:36:19;;;;;;;5.93;4.05;;;;;;;31.00;37.53;101130.38;5015851;28;20026;-59
2023/06/09 07:38:46;;;;;;;3.80;3.10;;;;;;;31.16;37.08;101132.25;5015958;28;20049;-59
2023/06/09 07:41:12;;;;;;;4.32;3.28;;;;;;;31.23;36.55;101127.38;5016132;28;20100;-60
2023/06/09 07:43:37;;;;;;;4.60;3.20;;;;;;;31.40;36.81;101128.13;5014557;28;20115;-58
2023/06/09 07:46:03;;;;;;;5.43;3.60;;;;;;;31.56;36.54;101132.78;5014522;28;20435;-58
2023/06/09 07:48:28;;;;;;;3.60;3.05;;;;;;;31.71;35.88;101124.63;5013726;28;20536;-59
2023/06/09 07:50:54;;;;;;;6.13;3.90;;;;;;;31.84;35.68;101136.38;5015721;28;20061;-59
2023/06/09 07:53:21;;;;;;;7.30;3.17;;;;;;;31.84;35.35;101114.22;5016080;28;20084;-59
2023/06/09 07:55:46;;;;;;;5.97;3.38;;;;;;;32.04;35.75;101136.63;5014654;28;20017;-59
2023/06/09 07:58:11;;;;;;;5.05;3.25;;;;;;;32.13;35.83;101132.28;5016786;28;20026;-59
2023/06/09 08:00:37;;;;;;;4.82;3.50;;;;;;;32.27;34.71;101144.59;5016203;28;20029;-59
2023/06/09 08:03:03;;;;;;;5.97;3.28;;;;;;;32.36;34.67;101126.34;5015771;28;20101;-59
2023/06/09 08:05:30;;;;;;;3.30;2.67;;;;;;;32.45;35.30;101133.06;5014428;28;20539;-59
2023/06/09 08:07:56;;;;;;;5.65;3.03;;;;;;;32.59;34.30;101123.22;5014537;28;20037;-59
2023/06/09 08:10:22;;;;;;;4.22;3.30;;;;;;;32.76;34.27;101126.66;5015234;28;20050;-59
2023/06/09 08:12:48;;;;;;;6.32;2.90;;;;;;;32.92;33.73;101132.28;5015297;28;20061;-59
2023/06/09 08:15:14;;;;;;;4.82;2.63;;;;;;;33.06;33.62;101133.50;5015670;28;20112;-59
2023/06/09 08:17:40;;;;;;;5.20;3.10;;;;;;;33.11;33.78;101141.88;5015567;28;20449;-59
2023/06/09 08:20:06;;;;;;;4.10;3.13;;;;;;;32.88;33.60;101095.06;5015808;28;20033;-59
2023/06/09 08:22:32;;;;;;;5.07;2.78;;;;;;;33.17;33.26;101138.00;5015585;28;20056;-59
2023/06/09 08:24:58;;;;;;;3.20;2.90;;;;;;;33.23;33.16;101132.19;5015408;28;20478;-59
2023/06/09 08:27:24;;;;;;;4.82;2.50;;;;;;;33.28;32.65;101128.59;5015302;28;20038;-59
2023/06/09 08:29:49;;;;;;;3.88;2.58;;;;;;;33.31;32.83;101116.94;5015188;28;20084;-59
2023/06/09 08:32:15;;;;;;;2.38;1.95;;;;;;;33.40;31.87;101120.88;5013601;28;20080;-59
2023/06/09 08:34:41;;;;;;;4.50;2.72;;;;;;;33.48;33.12;101120.34;5015231;28;20030;-59
2023/06/09 08:37:07;;;;;;;2.95;2.67;;;;;;;33.56;33.08;101103.13;5015041;28;20417;-59
2023/06/09 08:39:33;;;;;;;3.15;2.70;;;;;;;33.66;32.53;101114.31;5014115;28;20096;-59
2023/06/09 08:42:03;;;;;;;3.80;2.55;;;;;;;33.76;32.66;101119.88;4997134;28;20505;-59
2023/06/09 08:44:30;;;;;;;6.90;2.58;;;;;;;33.84;31.82;101102.66;5013717;28;20104;-59
2023/06/09 08:47:00;;;;;;;3.88;2.47;;;;;;;33.83;31.91;101095.44;5014650;28;20519;-59
2023/06/09 08:49:26;;;;;;;3.67;2.50;;;;;;;34.06;31.12;101101.56;5014510;28;20033;-59
2023/06/09 08:51:52;;;;;;;3.00;2.30;;;;;;;34.21;32.17;101104.34;5014850;28;20034;-59
2023/06/09 08:54:18;;;;;;;3.00;2.75;;;;;;;34.37;32.17;101104.06;5013324;28;20030;-60
2023/06/09 08:56:43;;;;;;;4.03;2.55;;;;;;;34.29;31.58;101067.63;5014818;28;20048;-59
2023/06/09 08:59:08;;;;;;;5.00;2.40;;;;;;;34.50;31.11;101097.94;5014121;28;20209;-59
2023/06/09 09:01:36;;;;;;;4.00;3.03;;;;;;;34.63;30.98;101093.75;5013607;28;20038;-59
2023/06/09 09:04:02;;;;;;;2.83;2.40;;;;;;;34.77;31.39;101097.63;5013441;28;20025;-59
2023/06/09 09:06:27;;;;;;;3.42;2.38;;;;;;;34.89;31.00;101095.38;5013124;28;20543;-59
2023/06/09 09:08:53;;;;;;;6.40;2.92;;;;;;;35.02;31.15;101089.16;5014412;28;20024;-59
2023/06/09 09:11:18;;;;;;;9.65;3.00;;;;;;;35.16;30.38;101092.22;5014439;28;20034;-59
2023/06/09 09:13:47;;;;;;;6.03;3.13;;;;;;;35.29;30.55;101086.00;5013176;28;20102;-59
2023/06/09 09:16:16;;;;;;;5.20;3.20;;;;;;;35.43;29.96;101094.59;5014307;28;20060;-59
2023/06/09 09:18:48;;;;;;;2.88;2.58;;;;;;;35.42;30.10;101087.34;5014085;28;20490;-60
2023/06/09 09:21:22;;;;;;;7.70;2.75;;;;;;;35.45;30.29;101081.19;4996973;28;20040;-59
2023/06/09 09:24:07;;;;;;;7.00;3.13;;;;;;;35.56;29.80;101091.19;5013200;28;20045;-59
2023/06/09 09:26:32;;;;;;;3.67;2.88;;;;;;;35.63;29.86;101086.94;5013994;28;20057;-59
2023/06/09 09:29:08;;;;;;;6.57;2.72;;;;;;;35.69;29.85;101081.31;5014147;28;20064;-59
2023/06/09 09:31:45;;;;;;;3.85;2.53;;;;;;;35.78;29.93;101074.84;5014178;28;20044;-60
2023/06/09 09:34:14;;;;;;;4.43;2.58;;;;;;;35.92;29.64;101088.97;5013603;28;20036;-60
2023/06/09 09:36:45;;;;;;;5.70;2.88;;;;;;;36.05;29.17;101085.53;5014017;28;20030;-59
2023/06/09 09:39:11;;;;;;;3.85;2.53;;;;;;;36.18;28.99;101084.88;5012864;28;20024;-59
2023/06/09 09:41:37;;;;;;;4.82;2.75;;;;;;;36.25;28.95;101090.09;5013762;28;20026;-59
2023/06/09 09:44:03;;;;;;;5.53;2.30;;;;;;;36.34;28.77;101088.34;5013662;28;20129;-59
2023/06/09 09:46:36;;;;;;;5.32;2.50;;;;;;;36.39;28.72;101079.91;5013549;28;20120;-59
2023/06/09 09:49:02;;;;;;;3.60;2.40;;;;;;;36.38;28.85;101064.31;5033596;28;20040;-59
2023/06/09 09:51:27;;;;;;;3.55;2.50;;;;;;;36.53;28.92;101080.91;5032849;28;20025;-59
2023/06/09 09:53:57;;;;;;;3.63;2.60;;;;;;;36.54;29.04;101083.44;5032758;28;20017;-59
2023/06/09 09:56:23;;;;;;;6.30;2.13;;;;;;;36.64;28.22;101076.88;5033707;28;20030;-59
2023/06/09 09:58:52;;;;;;;5.15;2.90;;;;;;;36.78;28.16;101077.84;5032092;28;20436;-60
2023/06/09 10:01:26;;;;;;;3.95;2.47;;;;;;;36.93;28.42;101086.06;5033639;28;20033;-59
2023/06/09 10:03:54;;;;;;;4.75;2.67;;;;;;;37.01;27.56;101068.66;5031827;28;20037;-60
2023/06/09 10:06:24;;;;;;;4.38;2.47;;;;;;;37.07;27.67;101078.66;5033448;28;20026;-59
2023/06/09 10:08:50;;;;;;;3.00;2.42;;;;;;;37.10;27.49;101080.00;5033078;28;20021;-60
2023/06/09 10:11:15;;;;;;;5.93;3.70;;;;;;;37.09;27.17;101068.00;5035718;28;20031;-59
2023/06/09 10:13:41;;;;;;;5.47;2.72;;;;;;;37.12;27.05;101072.97;5036405;28;20117;-60
2023/06/09 10:16:08;;;;;;;2.15;1.95;;;;;;;37.13;27.10;101069.03;5037536;28;20033;-60
2023/06/09 10:18:34;;;;;;;2.63;2.28;;;;;;;37.18;27.34;101057.81;5037413;28;20424;-59
2023/06/09 10:21:00;;;;;;;4.22;2.47;;;;;;;37.26;26.79;101062.72;5019901;28;20030;-59
2023/06/09 10:23:27;;;;;;;5.32;2.47;;;;;;;37.25;27.03;101044.28;5037371;28;20025;-59
2023/06/09 10:25:52;;;;;;;4.07;2.88;;;;;;;37.47;27.04;101056.88;5037953;28;20037;-59
2023/06/09 10:28:19;;;;;;;4.43;2.63;;;;;;;37.63;26.93;101049.91;5037684;28;20026;-59
2023/06/09 10:30:45;;;;;;;4.03;2.83;;;;;;;37.74;27.13;101062.59;5036802;28;20022;-60
2023/06/09 10:33:14;;;;;;;2.85;2.53;;;;;;;37.73;26.43;101055.31;5035816;28;20037;-59
2023/06/09 10:35:40;;;;;;;4.38;2.50;;;;;;;37.81;27.25;101052.66;5037364;28;20025;-60
2023/06/09 10:38:21;;;;;;;6.07;2.78;;;;;;;37.91;27.26;101062.91;5037039;28;20048;-60
2023/06/09 10:40:50;;;;;;;5.70;3.38;;;;;;;38.01;27.19;101057.13;5036703;28;20029;-60
2023/06/09 10:43:29;;;;;;;2.97;2.30;;;;;;;38.13;27.09;101054.69;5035494;28;20045;-60
2023/06/09 10:45:56;;;;;;;3.92;2.75;;;;;;;38.22;26.16;101052.81;5035879;28;20056;-60
2023/06/09 10:48:50;;;;;;;3.15;2.85;;;;;;;38.32;25.81;101049.00;5035718;28;20029;-60
2023/06/09 10:51:24;;;;;;;4.38;2.70;;;;;;;38.42;27.04;101049.66;5052539;28;20029;-59
2023/06/09 10:54:17;;;;;;;5.55;2.63;;;;;;;38.61;26.13;101046.81;5036836;28;20044;-60
2023/06/09 10:56:46;;;;;;;3.38;2.90;;;;;;;38.81;26.25;101048.34;5036627;28;20026;-60
2023/06/09 10:59:30;;;;;;;3.65;2.40;;;;;;;39.02;25.83;101049.59;5035252;28;20064;-60
2023/06/09 11:02:04;;;;;;;4.05;2.83;;;;;;;39.19;26.09;101054.56;5036627;28;20455;-60
2023/06/09 11:04:49;;;;;;;3.40;2.97;;;;;;;39.38;25.65;101039.28;5036581;28;20029;-60
2023/06/09 11:07:28;;;;;;;3.67;2.75;;;;;;;39.56;26.15;101049.47;5036632;28;20026;-60
2023/06/09 11:09:56;;;;;;;3.58;2.70;;;;;;;39.57;26.13;101039.94;5051971;28;20048;-60
2023/06/09 11:12:25;;;;;;;4.30;2.65;;;;;;;39.62;26.19;101050.19;5036235;28;20473;-60
2023/06/09 11:14:59;;;;;;;4.07;2.97;;;;;;;39.71;25.44;101039.06;5036414;28;20033;-60
2023/06/09 11:17:36;;;;;;;4.78;3.30;;;;;;;39.70;25.42;101020.59;5035589;28;20028;-60
2023/06/09 11:20:05;;;;;;;3.88;2.83;;;;;;;39.89;25.61;101040.88;5036180;28;20053;-60
2023/06/09 11:22:31;;;;;;;4.40;2.88;;;;;;;39.98;25.54;101045.38;5035645;28;20037;-60
2023/06/09 11:24:57;;;;;;;3.10;2.80;;;;;;;39.94;25.50;101015.47;5036137;28;20040;-60